Boston, Massachusetts
Current Conditions -  °F | °C
As of 1:54 PM on Thursday 30 Oct 2014 (Local Time) from KBOS Reporting Station
Scattered Clouds Scattered Clouds  
Wind Chill: 57°   Ceiling: Unl
Heat Index: 57°   Visibility: 10mi
Dew Point: 37°   Wind: 9mph
Humidity: 47%   Direction: 300°WNW
Pressure: 29.91"   Gusts: NA
Location:  42.36°N, 71.06°W
Report Text: KBOS 301754Z 30008KT 10SM SCT045 SCT090 14/03 A2991 RMK AO2 SLP127 T01390028 10150 20089 56008
Loading
Personal Weather Stations






























Interactive Weather Map
Tropical Storm Tracking
New forecast layout! Learn more

10-Day Weather Forecast

Advertisements
Track Severe Weather on mobile